Terminal Aerodrome Forecast
Issued by NWS Sioux Falls, SD

Home | Current Version | Previous Version | Graphics & Text | Print | Product List | Glossary Off
Versions: 1 2 3 4 5 6 7 8 9 10 11 12 13 14

709
FTUS43 KFSD 191720
TAFFSD
TAF
KFSD 191720Z 1918/2018 18013G21KT P6SM SKC
     FM200000 17009KT P6SM SKC
     FM200400 17010KT P6SM SKC WS020/20035KT
     FM201500 18018G26KT P6SM FEW250=

USA.gov is the U.S. government's official web portal to all federal, state and local government web resources and services.